createdAt,value
2022-10-01T00:00:43.921Z,99.90
2022-10-01T00:03:47.879Z,99.90
2022-10-01T00:06:21.512Z,99.90
2022-10-01T00:09:29.486Z,99.90
2022-10-01T00:11:59.868Z,99.90
2022-10-01T00:14:27.976Z,99.90
2022-10-01T00:16:55.732Z,99.90
2022-10-01T00:19:23.589Z,99.90
2022-10-01T00:21:51.131Z,99.90
2022-10-01T00:24:18.870Z,99.90
2022-10-01T00:26:46.973Z,99.90
2022-10-01T00:29:34.772Z,99.90
2022-10-01T00:32:04.002Z,99.90
2022-10-01T00:34:47.042Z,99.90
2022-10-01T00:37:15.246Z,99.90
2022-10-01T00:40:12.028Z,99.90
2022-10-01T00:45:38.171Z,99.90
2022-10-01T00:52:10.136Z,99.90
2022-10-01T00:54:52.492Z,99.90
2022-10-01T00:58:16.645Z,99.90
2022-10-01T01:00:54.756Z,99.90
2022-10-01T01:03:22.358Z,99.90
2022-10-01T01:06:09.879Z,99.90
2022-10-01T01:08:45.479Z,99.90
2022-10-01T01:11:40.506Z,99.90
2022-10-01T01:14:43.151Z,99.90
2022-10-01T01:17:42.584Z,99.90
2022-10-01T01:20:48.393Z,99.90
2022-10-01T01:23:18.966Z,99.90
2022-10-01T01:29:32.979Z,99.90
2022-10-01T01:32:22.900Z,99.90
2022-10-01T01:38:19.433Z,99.90
2022-10-01T01:40:53.635Z,99.90
2022-10-01T01:47:32.058Z,99.90
2022-10-01T01:50:20.525Z,99.90
2022-10-01T01:52:48.157Z,99.90
2022-10-01T01:55:38.738Z,99.90
2022-10-01T01:58:14.259Z,99.90
2022-10-01T02:00:44.082Z,99.90
2022-10-01T02:03:14.472Z,99.90
2022-10-01T02:06:18.684Z,99.90
2022-10-01T02:08:59.954Z,99.90
2022-10-01T02:12:02.965Z,99.90
2022-10-01T02:14:51.097Z,99.90
2022-10-01T02:17:33.660Z,99.90
2022-10-01T02:20:36.678Z,99.90
2022-10-01T02:23:13.560Z,99.90
2022-10-01T02:26:06.860Z,99.90
2022-10-01T02:29:01.471Z,99.90
2022-10-01T02:32:16.114Z,99.90
2022-10-01T02:34:50.032Z,99.90
2022-10-01T02:37:34.818Z,99.90
2022-10-01T02:41:05.032Z,99.90
2022-10-01T02:44:16.017Z,99.90
2022-10-01T02:46:52.909Z,99.90
2022-10-01T03:09:47.766Z,99.90
2022-10-01T03:12:17.839Z,99.90
2022-10-01T03:14:46.526Z,99.90
2022-10-01T03:17:49.394Z,99.90
2022-10-01T03:20:20.055Z,99.90
2022-10-01T03:22:55.444Z,99.90
2022-10-01T03:28:19.725Z,99.90
2022-10-01T03:31:24.620Z,99.90
2022-10-01T03:34:24.758Z,99.90
2022-10-01T03:36:54.583Z,99.90
2022-10-01T03:39:24.390Z,99.90
2022-10-01T03:42:01.091Z,99.90
2022-10-01T03:44:28.654Z,99.90
2022-10-01T03:49:38.834Z,99.90
2022-10-01T03:52:26.645Z,99.90
2022-10-01T03:54:56.988Z,99.90
2022-10-01T03:57:31.057Z,99.90
2022-10-01T04:00:01.441Z,99.90
2022-10-01T04:02:52.304Z,99.90
2022-10-01T04:05:29.586Z,99.90
2022-10-01T04:07:57.955Z,99.90
2022-10-01T04:10:34.922Z,99.90
2022-10-01T04:13:20.963Z,99.90
2022-10-01T04:16:02.332Z,99.90
2022-10-01T04:19:41.419Z,99.90
2022-10-01T04:22:14.797Z,99.90
2022-10-01T04:28:09.335Z,99.90
2022-10-01T04:31:15.975Z,99.90
2022-10-01T04:34:53.774Z,99.90
2022-10-01T04:46:37.730Z,99.90
2022-10-01T04:49:12.190Z,99.90
2022-10-01T04:52:19.609Z,99.90
2022-10-01T04:55:20.988Z,99.90
2022-10-01T04:57:49.680Z,99.90
2022-10-01T05:00:26.947Z,99.90
2022-10-01T05:02:54.992Z,99.90
2022-10-01T05:05:30.356Z,99.90
2022-10-01T05:07:57.939Z,99.90
2022-10-01T05:11:13.767Z,99.90
2022-10-01T05:13:41.795Z,99.90
2022-10-01T05:16:32.334Z,99.90
2022-10-01T05:19:00.061Z,99.90
2022-10-01T05:25:40.001Z,99.90
2022-10-01T05:28:21.338Z,99.90
2022-10-01T05:31:04.736Z,99.90
2022-10-01T05:33:53.666Z,99.90
2022-10-01T05:37:09.358Z,99.90
2022-10-01T05:40:15.984Z,99.90
2022-10-01T05:43:07.445Z,99.90
2022-10-01T05:45:36.077Z,99.90
2022-10-01T05:50:59.193Z,99.90
2022-10-01T05:53:28.968Z,99.90
2022-10-01T05:55:56.526Z,99.90
2022-10-01T05:58:27.435Z,99.90
2022-10-01T06:01:11.466Z,99.90
2022-10-01T06:03:39.493Z,99.90
2022-10-01T06:06:07.030Z,99.90
2022-10-01T06:08:35.881Z,99.90
2022-10-01T06:11:10.452Z,99.90
2022-10-01T06:13:38.103Z,99.90
2022-10-01T06:16:16.431Z,99.90
2022-10-01T06:18:44.074Z,99.90
2022-10-01T06:21:11.655Z,99.90
2022-10-01T06:24:06.181Z,99.90
2022-10-01T06:27:13.759Z,99.90
2022-10-01T06:30:10.973Z,99.90
2022-10-01T06:32:38.460Z,99.90
2022-10-01T06:38:51.510Z,99.90
2022-10-01T06:41:24.439Z,99.90
2022-10-01T06:43:52.035Z,99.90
2022-10-01T06:46:44.055Z,99.90
2022-10-01T06:49:11.797Z,99.90
2022-10-01T06:51:58.428Z,99.90
2022-10-01T06:54:27.425Z,99.90
2022-10-01T06:56:55.108Z,99.90
2022-10-01T06:59:22.613Z,99.90
2022-10-01T07:01:55.508Z,99.90
2022-10-01T07:04:24.106Z,99.90
2022-10-01T07:06:52.233Z,99.90
2022-10-01T07:09:19.854Z,99.90
2022-10-01T07:11:47.608Z,99.90
2022-10-01T07:14:21.216Z,99.90
2022-10-01T07:16:48.738Z,99.90
2022-10-01T07:19:17.819Z,99.90
2022-10-01T07:21:49.063Z,99.90
2022-10-01T07:24:16.740Z,99.90
2022-10-01T07:26:44.251Z,99.90
2022-10-01T07:29:15.705Z,99.90
2022-10-01T07:32:01.627Z,99.90
2022-10-01T07:34:33.532Z,99.90
2022-10-01T07:37:03.561Z,99.90
2022-10-01T07:39:37.495Z,99.90
2022-10-01T07:42:11.748Z,99.90
2022-10-01T07:44:39.297Z,99.90
2022-10-01T07:47:06.901Z,99.90
2022-10-01T07:49:34.762Z,99.90
2022-10-01T07:52:02.492Z,99.90
2022-10-01T07:54:30.161Z,99.90
2022-10-01T07:56:57.744Z,99.90
2022-10-01T07:59:28.184Z,99.90
2022-10-01T08:01:55.751Z,99.90
2022-10-01T08:04:45.716Z,99.90
2022-10-01T08:07:15.420Z,99.90
2022-10-01T08:09:43.143Z,99.90
2022-10-01T08:12:10.590Z,99.90
2022-10-01T08:14:38.230Z,99.90
2022-10-01T08:17:06.000Z,99.90
2022-10-01T08:19:34.332Z,99.90
2022-10-01T08:22:02.099Z,99.90
2022-10-01T08:24:31.025Z,99.90
2022-10-01T08:26:58.545Z,99.90
2022-10-01T08:29:26.099Z,99.90
2022-10-01T08:31:53.996Z,99.90
2022-10-01T08:34:21.607Z,99.90
2022-10-01T08:36:53.688Z,99.90
2022-10-01T08:39:21.308Z,99.90
2022-10-01T08:42:03.829Z,99.90
2022-10-01T08:44:38.643Z,99.90
2022-10-01T08:47:19.324Z,99.90
2022-10-01T08:49:52.038Z,99.90
2022-10-01T08:52:28.567Z,99.90
2022-10-01T08:55:00.273Z,99.90
2022-10-01T08:57:42.188Z,99.90
2022-10-01T09:00:16.418Z,99.90
2022-10-01T09:02:46.824Z,99.90
2022-10-01T09:05:56.643Z,99.90
2022-10-01T09:08:44.570Z,99.90
2022-10-01T09:11:38.796Z,99.90
2022-10-01T09:14:12.164Z,99.90
2022-10-01T09:16:48.810Z,99.90
2022-10-01T09:19:58.127Z,99.90
2022-10-01T09:22:37.248Z,99.90
2022-10-01T09:25:24.410Z,99.90
2022-10-01T09:28:23.004Z,99.90
2022-10-01T09:31:37.384Z,99.90
2022-10-01T09:34:27.001Z,99.90
2022-10-01T09:37:04.784Z,99.90
2022-10-01T09:39:55.183Z,99.90
2022-10-01T09:42:26.007Z,99.90
2022-10-01T09:44:54.690Z,99.90
2022-10-01T09:47:28.198Z,99.90
2022-10-01T09:49:58.731Z,99.90
2022-10-01T09:52:28.914Z,99.90
2022-10-01T09:55:19.272Z,99.90
2022-10-01T09:57:53.891Z,99.90
2022-10-01T10:00:24.392Z,99.90
2022-10-01T10:02:57.008Z,99.90
2022-10-01T10:05:40.624Z,99.90
2022-10-01T10:08:33.887Z,99.90
2022-10-01T10:11:09.707Z,99.90
2022-10-01T10:13:44.976Z,99.90
2022-10-01T10:16:26.806Z,99.90
2022-10-01T10:19:04.928Z,99.90
2022-10-01T10:21:35.466Z,99.90
2022-10-01T10:24:19.655Z,99.90
2022-10-01T10:26:55.338Z,99.90
2022-10-01T10:29:37.566Z,99.90
2022-10-01T10:32:15.569Z,99.90
2022-10-01T10:34:48.517Z,99.90
2022-10-01T10:37:30.057Z,99.90
2022-10-01T10:39:58.658Z,99.90
2022-10-01T10:42:26.809Z,99.90
2022-10-01T10:44:58.990Z,99.90
2022-10-01T10:47:31.491Z,99.90
2022-10-01T10:50:05.488Z,99.90
2022-10-01T10:52:36.867Z,99.90
2022-10-01T10:55:25.297Z,99.90
2022-10-01T10:57:57.509Z,99.90
2022-10-01T11:00:26.625Z,98.50
2022-10-01T11:03:22.131Z,95.90
2022-10-01T11:05:52.093Z,95.40
2022-10-01T11:08:25.061Z,90.60
2022-10-01T11:11:22.200Z,87.70
2022-10-01T11:14:23.875Z,82.30
2022-10-01T11:17:23.219Z,78.40
2022-10-01T11:20:16.351Z,72.40
2022-10-01T11:23:38.534Z,70.30
2022-10-01T11:26:56.875Z,67.40
2022-10-01T11:29:43.488Z,65.60
2022-10-01T11:32:51.477Z,68.20
2022-10-01T11:35:29.161Z,69.20
2022-10-01T11:38:11.783Z,67.20
2022-10-01T11:40:46.002Z,67.30
2022-10-01T11:43:37.589Z,66.20
2022-10-01T11:46:29.560Z,69.60
2022-10-01T11:49:23.001Z,73.00
2022-10-01T11:52:15.176Z,70.50
2022-10-01T11:55:24.132Z,70.40
2022-10-01T11:58:17.541Z,69.10
2022-10-01T12:00:59.072Z,71.90
2022-10-01T12:03:33.362Z,76.10
2022-10-01T12:06:01.936Z,80.50
2022-10-01T12:08:32.994Z,83.10
2022-10-01T12:11:29.651Z,85.50
2022-10-01T12:14:12.490Z,87.70
2022-10-01T12:16:52.656Z,89.00
2022-10-01T12:19:36.250Z,90.80
2022-10-01T12:22:09.850Z,90.80
2022-10-01T12:24:42.783Z,91.40
2022-10-01T12:27:31.613Z,92.90
2022-10-01T12:30:19.382Z,92.90
2022-10-01T12:33:28.253Z,90.70
2022-10-01T12:36:38.139Z,91.40
2022-10-01T12:39:21.244Z,92.20
2022-10-01T12:42:07.887Z,93.00
2022-10-01T12:45:00.238Z,93.40
2022-10-01T12:47:52.189Z,92.60
2022-10-01T12:50:45.869Z,92.90
2022-10-01T12:53:32.584Z,93.10
2022-10-01T12:56:18.787Z,93.70
2022-10-01T12:59:01.709Z,93.60
2022-10-01T13:02:07.633Z,93.90
2022-10-01T13:05:39.446Z,94.50
2022-10-01T13:08:43.746Z,95.00
2022-10-01T13:11:11.268Z,95.00
2022-10-01T13:13:39.204Z,94.90
2022-10-01T13:16:28.780Z,94.10
2022-10-01T13:19:08.311Z,94.70
2022-10-01T13:21:45.103Z,94.40
2022-10-01T13:24:26.803Z,94.80
2022-10-01T13:27:09.977Z,95.20
2022-10-01T13:29:43.358Z,95.40
2022-10-01T13:32:34.090Z,94.90
2022-10-01T13:35:24.636Z,95.70
2022-10-01T13:37:54.708Z,96.00
2022-10-01T13:40:34.138Z,96.60
2022-10-01T13:43:20.141Z,96.60
2022-10-01T13:45:52.505Z,96.70
2022-10-01T13:48:31.914Z,95.90
2022-10-01T13:51:05.840Z,96.90
2022-10-01T13:53:58.848Z,97.50
2022-10-01T13:56:35.728Z,96.50
2022-10-01T13:59:39.855Z,96.80
2022-10-01T14:02:47.453Z,97.30
2022-10-01T14:05:18.495Z,97.50
2022-10-01T14:08:37.760Z,97.60
2022-10-01T14:11:34.457Z,97.60
2022-10-01T14:14:52.613Z,98.40
2022-10-01T14:17:30.697Z,97.00
2022-10-01T14:20:01.037Z,96.80
2022-10-01T14:22:31.911Z,96.30
2022-10-01T14:25:21.035Z,96.30
2022-10-01T14:28:07.379Z,96.80
2022-10-01T14:31:00.205Z,96.60
2022-10-01T14:33:42.382Z,96.30
2022-10-01T14:36:20.753Z,96.60
2022-10-01T14:38:52.273Z,96.20
2022-10-01T14:41:23.752Z,96.80
2022-10-01T14:43:51.316Z,97.50
2022-10-01T14:46:21.036Z,97.60
2022-10-01T14:49:01.765Z,96.70
2022-10-01T14:51:32.088Z,96.60
2022-10-01T14:54:01.579Z,97.10
2022-10-01T14:56:29.780Z,96.30
2022-10-01T14:59:02.764Z,96.10
2022-10-01T15:01:30.504Z,96.20
2022-10-01T15:03:58.441Z,96.90
2022-10-01T15:06:30.726Z,97.20
2022-10-01T15:09:45.985Z,97.00
2022-10-01T15:12:41.459Z,97.60
2022-10-01T15:15:45.988Z,97.40
2022-10-01T15:18:45.151Z,98.00
2022-10-01T15:21:31.460Z,98.30
2022-10-01T15:23:59.595Z,98.40
2022-10-01T15:26:28.255Z,98.60
2022-10-01T15:29:21.513Z,98.80
2022-10-01T15:31:51.643Z,98.60
2022-10-01T15:34:22.666Z,98.50
2022-10-01T15:36:51.403Z,98.30
2022-10-01T15:39:30.907Z,98.20
2022-10-01T15:42:01.250Z,98.50
2022-10-01T15:44:46.029Z,98.00
2022-10-01T15:47:19.770Z,98.00
2022-10-01T15:50:12.449Z,98.00
2022-10-01T15:53:05.924Z,97.80
2022-10-01T15:55:49.572Z,98.40
2022-10-01T15:58:39.207Z,98.40
2022-10-01T16:01:22.037Z,98.60
2022-10-01T16:04:15.629Z,98.90
2022-10-01T16:06:50.401Z,99.00
2022-10-01T16:09:23.118Z,99.50
2022-10-01T16:11:55.467Z,99.60
2022-10-01T16:14:32.555Z,99.90
2022-10-01T16:17:23.847Z,99.90
2022-10-01T16:20:05.207Z,99.80
2022-10-01T16:22:41.923Z,99.90
2022-10-01T16:25:19.912Z,99.90
2022-10-01T16:28:13.391Z,99.90
2022-10-01T16:30:42.128Z,99.90
2022-10-01T16:33:32.850Z,99.90
2022-10-01T16:36:11.207Z,99.90
2022-10-01T16:38:59.268Z,99.90
2022-10-01T16:42:22.230Z,99.90
2022-10-01T16:44:52.836Z,99.90
2022-10-01T16:47:20.392Z,99.90
2022-10-01T16:49:50.507Z,99.90
2022-10-01T16:52:18.260Z,99.90
2022-10-01T16:54:47.598Z,99.90
2022-10-01T16:57:20.306Z,99.90
2022-10-01T16:59:47.983Z,99.90
2022-10-01T17:02:15.813Z,99.90
2022-10-01T17:04:43.695Z,99.90
2022-10-01T17:07:11.494Z,99.90
2022-10-01T17:09:39.345Z,99.90
2022-10-01T17:12:06.946Z,99.90
2022-10-01T17:14:40.254Z,99.90
2022-10-01T17:17:07.657Z,99.90
2022-10-01T17:19:35.069Z,99.90
2022-10-01T17:22:13.150Z,99.90
2022-10-01T17:24:40.610Z,99.90
2022-10-01T17:31:33.961Z,99.90
2022-10-01T17:54:17.167Z,99.90
2022-10-01T18:00:46.662Z,99.90
2022-10-01T18:03:14.380Z,99.90
2022-10-01T18:05:42.249Z,99.90
2022-10-01T18:08:09.931Z,99.90
2022-10-01T18:10:37.533Z,99.90
2022-10-01T18:13:05.266Z,99.90
2022-10-01T18:15:33.035Z,99.90
2022-10-01T18:19:24.390Z,99.90
2022-10-01T18:20:48.626Z,99.90
2022-10-01T18:23:16.155Z,99.90
2022-10-01T18:25:43.646Z,99.90
2022-10-01T18:28:12.406Z,99.90
2022-10-01T18:30:40.032Z,99.90
2022-10-01T18:33:15.570Z,99.90
2022-10-01T18:35:44.436Z,99.90
2022-10-01T18:38:21.807Z,99.90
2022-10-01T18:41:10.778Z,99.90
2022-10-01T18:43:40.143Z,99.90
2022-10-01T18:46:12.058Z,99.90
2022-10-01T18:48:40.271Z,99.90
2022-10-01T18:51:16.878Z,99.90
2022-10-01T18:54:06.022Z,99.90
2022-10-01T18:56:39.845Z,99.90
2022-10-01T18:59:23.154Z,99.90
2022-10-01T19:01:59.830Z,99.90
2022-10-01T19:05:01.644Z,99.90
2022-10-01T19:07:52.475Z,99.90
2022-10-01T19:10:58.564Z,99.90
2022-10-01T19:13:35.184Z,99.90
2022-10-01T19:16:47.902Z,99.90
2022-10-01T19:19:37.454Z,99.90
2022-10-01T19:22:34.075Z,99.90
2022-10-01T19:25:38.011Z,99.90
2022-10-01T19:28:14.904Z,99.90
2022-10-01T19:31:04.012Z,99.90
2022-10-01T19:33:38.277Z,99.90
2022-10-01T19:36:09.347Z,99.90
2022-10-01T19:38:42.460Z,99.90
2022-10-01T19:41:20.737Z,99.90
2022-10-01T19:44:00.009Z,99.90
2022-10-01T19:46:38.913Z,99.90
2022-10-01T19:49:09.943Z,99.90
2022-10-01T19:52:02.489Z,99.90
2022-10-01T19:54:36.595Z,99.90
2022-10-01T19:57:16.204Z,99.90
2022-10-01T19:59:43.856Z,99.90
2022-10-01T20:02:27.512Z,99.90
2022-10-01T20:05:18.863Z,99.90
2022-10-01T20:08:11.307Z,99.90
2022-10-01T20:10:48.420Z,99.90
2022-10-01T20:13:18.720Z,99.90
2022-10-01T20:16:01.092Z,99.90
2022-10-01T20:18:40.644Z,99.90
2022-10-01T20:21:48.883Z,99.90
2022-10-01T20:24:21.530Z,99.90
2022-10-01T20:26:55.136Z,99.90
2022-10-01T20:30:35.387Z,99.90
2022-10-01T20:36:42.165Z,99.90
2022-10-01T20:39:53.584Z,99.90
2022-10-01T20:42:48.161Z,99.90
2022-10-01T20:46:15.735Z,99.90
2022-10-01T20:59:48.718Z,99.90
2022-10-01T21:02:48.763Z,99.90
2022-10-01T21:05:48.542Z,99.90
2022-10-01T21:08:40.741Z,99.90
2022-10-01T21:11:18.302Z,99.90
2022-10-01T21:14:25.014Z,99.90
2022-10-01T21:17:23.925Z,99.90
2022-10-01T21:24:41.501Z,99.90
2022-10-01T21:27:29.499Z,99.90
2022-10-01T21:30:23.272Z,99.90
2022-10-01T21:37:29.594Z,99.90
2022-10-01T21:44:36.067Z,99.90
2022-10-01T21:47:49.963Z,99.90
2022-10-01T21:50:20.777Z,99.90
2022-10-01T21:53:06.971Z,99.90
2022-10-01T21:55:43.351Z,99.90
2022-10-01T21:58:34.651Z,99.90
2022-10-01T22:01:49.404Z,99.90
2022-10-01T22:04:20.157Z,99.90
2022-10-01T22:07:28.425Z,99.90
2022-10-01T22:10:12.661Z,99.90
2022-10-01T22:12:42.877Z,99.90
2022-10-01T22:15:34.565Z,99.90
2022-10-01T22:18:07.180Z,99.90
2022-10-01T22:20:39.271Z,99.90
2022-10-01T22:23:14.282Z,99.90
2022-10-01T22:26:00.109Z,99.90
2022-10-01T22:28:51.114Z,99.90
2022-10-01T22:31:40.450Z,99.90
2022-10-01T22:34:43.358Z,99.90
2022-10-01T22:37:21.927Z,99.90
2022-10-01T22:40:03.642Z,99.90
2022-10-01T22:42:40.952Z,99.90
2022-10-01T22:45:23.219Z,99.90
2022-10-01T22:48:10.451Z,99.90
2022-10-01T22:51:21.228Z,99.90
2022-10-01T22:55:04.525Z,99.90
2022-10-01T22:58:09.538Z,99.90
2022-10-01T23:01:04.685Z,99.90
2022-10-01T23:04:20.570Z,99.90
2022-10-01T23:07:21.831Z,99.90
2022-10-01T23:10:21.793Z,99.90
2022-10-01T23:13:39.745Z,99.90
2022-10-01T23:16:55.171Z,99.90
2022-10-01T23:23:10.342Z,99.90
2022-10-01T23:26:14.477Z,99.90
2022-10-01T23:28:42.079Z,99.90
2022-10-01T23:31:29.770Z,99.90
2022-10-01T23:34:18.402Z,99.90
2022-10-01T23:36:58.042Z,99.90
2022-10-01T23:40:12.024Z,99.90
2022-10-01T23:43:10.471Z,99.90
2022-10-01T23:45:58.066Z,99.90
2022-10-01T23:48:58.330Z,99.90
2022-10-01T23:52:26.043Z,99.90
